Sidney, TX (76474)

10:09 PM CDT on April 25, 2015 (GMT -0500)
Comanche | | Change Station
CLOSE
Current Station
Airport
Location: Comanche,
Elevation: 1388 ft
Nearby Weather Stations

Elev 1388 ft 31.92 °N, 98.60 °W | Updated 14 minutes ago

Clear
Clear
71 °F
Feels Like 71 °F
N
5
Wind Variable Wind from South

Today
High -- | Low -- °F
--% Chance of Precip.
Yesterday
High -- | Low -- °F
Precip. -- in
6:55 AM 8:11 PM
Waxing Crescent, 51% visible
Pressure 29.73 in
Visibility 10.0 miles
Clouds Clear
Dew Point 51 °F
Humidity 49%
Rainfall 0.01 in
Snow Depth Not available.
UV 0 out of 12
Pollen 9.70 out of 12
Air Quality Not available.
Flu Activity Local Activity
METAR KMKN 260255Z AUTO 19004KT 10SM CLR 22/10 A2973 RMK AO2 T02170104

More Conditions Fewer Conditions

Pressure 29.73 in
Visibility 10.0 miles
Clouds Clear
Dew Point 51 °F
Humidity 49%
Rainfall 0.01 in
Snow Depth Not available.
UV 0 out of 12
Pollen 9.70 out of 12
Air Quality Not available.
Flu Activity Local Activity
METAR KMKN 260255Z AUTO 19004KT 10SM CLR 22/10 A2973 RMK AO2 T02170104

More Conditions Fewer Conditions

The full scope of the disaster following a powerful 7.8-magnitude earthquake in Nepal may not come into view for days, but global charities are already sending emergency aid. Click to see how you can help.

10-Day Weather Forecast

Almanac

Astronomy

Apr. 25, 2015 Rise Set
Actual Time
Civil Twilight
Nautical Twilight
Astronomical Twilight
Moon
Length of Visible Light
Length of Day
Tomorrow will be .
, % of the Moon is Illuminated

Today's Extremes

State Highs State Lows

Community

WunderPhotos

Upload Photos

1,816,916 photos uploaded!

WunderBlogs® & News

Nearby

Air Quality

  Air Quality AQ Index Pollutant
Not available.

Snow Depth

Station Depth Elevation

Earthquake Activity

City Distance Mag. Time & Date
Minimum magnitude displayed is 2.5.

Coastal Water Temperatures

Place Temperature

Stations

Nearby Weather Stations

Station Location Temp. Windchill Dew Point Humidity Wind Precip. Elev Updated Type